Villa Ascasubi, Argentina
Current Conditions -  °F | °C
As of 2:00 AM on Sunday 23 Nov 2014 (Local Time) from SACO Reporting Station
Clear Clear  
Wind Chill: 59°   Ceiling: Unl
Heat Index: 59°   Visibility: 6mi
Dew Point: 54°   Wind: 6mph
Humidity: 82%   Direction: 360°N
Pressure: 29.97"   Gusts: NA
Location:  32.17°S, 63.89°W
Report Text: SACO 230500Z 36005KT CAVOK 15/12 Q1015
Loading
Personal Weather Stations






























Interactive Weather Map New forecast layout! Learn more

10-Day Weather Forecast

Advertisements
Track Severe Weather on mobile